sensor_id;sensor_type;location;lat;lon;timestamp;pressure;altitude;pressure_sealevel;temperature;humidity
58056;BME280;53159;55.152;36.614;2022-08-01T00:02:29;99801.69;;;12.15;100.00
58056;BME280;53159;55.152;36.614;2022-08-01T00:04:57;99807.72;;;12.12;100.00
58056;BME280;53159;55.152;36.614;2022-08-01T00:07:26;99801.66;;;12.13;100.00
58056;BME280;53159;55.152;36.614;2022-08-01T00:09:52;99791.16;;;12.08;100.00
58056;BME280;53159;55.152;36.614;2022-08-01T00:12:19;99795.41;;;12.05;100.00
58056;BME280;53159;55.152;36.614;2022-08-01T00:14:46;99796.34;;;12.07;100.00
58056;BME280;53159;55.152;36.614;2022-08-01T00:17:14;99797.19;;;12.06;100.00
58056;BME280;53159;55.152;36.614;2022-08-01T00:19:41;99791.97;;;12.06;100.00
58056;BME280;53159;55.152;36.614;2022-08-01T00:22:09;99804.06;;;12.04;100.00
58056;BME280;53159;55.152;36.614;2022-08-01T00:24:35;99809.19;;;11.99;100.00
58056;BME280;53159;55.152;36.614;2022-08-01T00:27:02;99806.53;;;11.98;100.00
58056;BME280;53159;55.152;36.614;2022-08-01T00:29:30;99804.69;;;11.93;100.00
58056;BME280;53159;55.152;36.614;2022-08-01T00:31:56;99805.53;;;11.92;100.00
58056;BME280;53159;55.152;36.614;2022-08-01T00:34:23;99811.56;;;11.91;100.00
58056;BME280;53159;55.152;36.614;2022-08-01T00:36:50;99798.53;;;11.88;100.00
58056;BME280;53159;55.152;36.614;2022-08-01T00:39:17;99807.16;;;11.87;100.00
58056;BME280;53159;55.152;36.614;2022-08-01T00:41:46;99799.34;;;11.86;100.00
58056;BME280;53159;55.152;36.614;2022-08-01T00:44:13;99805.22;;;11.77;100.00
58056;BME280;53159;55.152;36.614;2022-08-01T00:46:39;99809.34;;;11.69;100.00
58056;BME280;53159;55.152;36.614;2022-08-01T00:49:07;99809.34;;;11.67;100.00
58056;BME280;53159;55.152;36.614;2022-08-01T00:51:35;99807.50;;;11.63;100.00
58056;BME280;53159;55.152;36.614;2022-08-01T00:54:03;99805.78;;;11.64;100.00
58056;BME280;53159;55.152;36.614;2022-08-01T00:56:29;99800.56;;;11.62;100.00
58056;BME280;53159;55.152;36.614;2022-08-01T00:58:57;99806.63;;;11.63;100.00
58056;BME280;53159;55.152;36.614;2022-08-01T01:01:24;99808.31;;;11.60;100.00
58056;BME280;53159;55.152;36.614;2022-08-01T01:03:52;99813.56;;;11.62;100.00
58056;BME280;53159;55.152;36.614;2022-08-01T01:06:31;99814.34;;;11.59;100.00
58056;BME280;53159;55.152;36.614;2022-08-01T01:12:36;99819.47;;;11.56;100.00
58056;BME280;53159;55.152;36.614;2022-08-01T01:20:13;99812.38;;;11.49;100.00
58056;BME280;53159;55.152;36.614;2022-08-01T01:25:25;99801.94;;;11.48;100.00
58056;BME280;53159;55.152;36.614;2022-08-01T01:30:39;99803.78;;;11.52;100.00
58056;BME280;53159;55.152;36.614;2022-08-01T01:33:08;99811.59;;;11.53;100.00
58056;BME280;53159;55.152;36.614;2022-08-01T01:35:40;99806.47;;;11.56;100.00
58056;BME280;53159;55.152;36.614;2022-08-01T01:38:12;99805.63;;;11.56;100.00
58056;BME280;53159;55.152;36.614;2022-08-01T01:40:44;99803.88;;;11.56;100.00
58056;BME280;53159;55.152;36.614;2022-08-01T01:43:14;99805.75;;;11.62;100.00
58056;BME280;53159;55.152;36.614;2022-08-01T01:45:44;99799.56;;;11.57;100.00
58056;BME280;53159;55.152;36.614;2022-08-01T01:48:19;99804.59;;;11.49;100.00
58056;BME280;53159;55.152;36.614;2022-08-01T01:50:47;99801.94;;;11.46;100.00
58056;BME280;53159;55.152;36.614;2022-08-01T01:53:19;99809.75;;;11.48;100.00
58056;BME280;53159;55.152;36.614;2022-08-01T01:55:48;99807.25;;;11.52;100.00
58056;BME280;53159;55.152;36.614;2022-08-01T01:58:17;99808.38;;;11.64;100.00
58056;BME280;53159;55.152;36.614;2022-08-01T02:00:47;99802.22;;;11.58;100.00
58056;BME280;53159;55.152;36.614;2022-08-01T02:03:16;99803.91;;;11.58;100.00
58056;BME280;53159;55.152;36.614;2022-08-01T02:05:44;99808.53;;;11.70;100.00
58056;BME280;53159;55.152;36.614;2022-08-01T02:08:11;99798.31;;;11.79;100.00
58056;BME280;53159;55.152;36.614;2022-08-01T02:10:41;99807.28;;;11.93;100.00
58056;BME280;53159;55.152;36.614;2022-08-01T02:13:32;99809.34;;;12.07;100.00
58056;BME280;53159;55.152;36.614;2022-08-01T02:16:00;99808.69;;;12.17;100.00
58056;BME280;53159;55.152;36.614;2022-08-01T02:18:27;99809.78;;;12.29;100.00
58056;BME280;53159;55.152;36.614;2022-08-01T02:20:55;99800.41;;;12.38;100.00
58056;BME280;53159;55.152;36.614;2022-08-01T02:23:27;99803.25;;;12.51;100.00
58056;BME280;53159;55.152;36.614;2022-08-01T02:25:57;99796.22;;;12.45;100.00
58056;BME280;53159;55.152;36.614;2022-08-01T02:28:53;99796.34;;;12.51;100.00
58056;BME280;53159;55.152;36.614;2022-08-01T02:31:20;99794.63;;;12.53;100.00
58056;BME280;53159;55.152;36.614;2022-08-01T02:34:01;99797.47;;;12.66;100.00
58056;BME280;53159;55.152;36.614;2022-08-01T02:36:35;99801.00;;;12.69;100.00
58056;BME280;53159;55.152;36.614;2022-08-01T02:39:10;99802.88;;;12.78;100.00
58056;BME280;53159;55.152;36.614;2022-08-01T02:41:47;99798.66;;;12.83;100.00
58056;BME280;53159;55.152;36.614;2022-08-01T02:44:27;99803.09;;;12.89;100.00
58056;BME280;53159;55.152;36.614;2022-08-01T02:46:58;99806.72;;;12.97;100.00
58056;BME280;53159;55.152;36.614;2022-08-01T02:49:31;99809.63;;;13.17;100.00
58056;BME280;53159;55.152;36.614;2022-08-01T02:52:05;99803.78;;;13.31;100.00
58056;BME280;53159;55.152;36.614;2022-08-01T02:54:33;99805.03;;;13.54;100.00
58056;BME280;53159;55.152;36.614;2022-08-01T02:57:02;99805.53;;;13.89;100.00
58056;BME280;53159;55.152;36.614;2022-08-01T02:59:30;99802.41;;;14.19;100.00
58056;BME280;53159;55.152;36.614;2022-08-01T03:02:00;99797.53;;;14.48;100.00
58056;BME280;53159;55.152;36.614;2022-08-01T03:04:30;99795.25;;;14.78;100.00
58056;BME280;53159;55.152;36.614;2022-08-01T03:07:00;99801.50;;;14.97;100.00
58056;BME280;53159;55.152;36.614;2022-08-01T03:09:32;99797.38;;;15.22;99.86
58056;BME280;53159;55.152;36.614;2022-08-01T03:12:02;99793.16;;;15.38;98.51
58056;BME280;53159;55.152;36.614;2022-08-01T03:14:35;99799.34;;;15.56;96.55
58056;BME280;53159;55.152;36.614;2022-08-01T03:17:04;99806.38;;;15.68;95.00
58056;BME280;53159;55.152;36.614;2022-08-01T03:19:31;99802.09;;;15.79;93.77
58056;BME280;53159;55.152;36.614;2022-08-01T03:22:02;99796.94;;;15.85;92.70
58056;BME280;53159;55.152;36.614;2022-08-01T03:24:34;99796.13;;;15.97;92.72
58056;BME280;53159;55.152;36.614;2022-08-01T03:27:04;99800.59;;;16.32;91.65
58056;BME280;53159;55.152;36.614;2022-08-01T03:29:34;99803.31;;;16.54;89.74
58056;BME280;53159;55.152;36.614;2022-08-01T03:32:02;99795.50;;;16.77;89.96
58056;BME280;53159;55.152;36.614;2022-08-01T03:34:49;99797.31;;;17.09;88.84
58056;BME280;53159;55.152;36.614;2022-08-01T03:37:25;99798.16;;;17.34;87.22
58056;BME280;53159;55.152;36.614;2022-08-01T03:40:02;99794.63;;;17.55;86.03
58056;BME280;53159;55.152;36.614;2022-08-01T03:42:37;99780.56;;;17.87;83.21
58056;BME280;53159;55.152;36.614;2022-08-01T03:45:11;99789.31;;;17.97;81.59
58056;BME280;53159;55.152;36.614;2022-08-01T03:47:42;99780.47;;;18.12;80.21
58056;BME280;53159;55.152;36.614;2022-08-01T03:50:11;99784.59;;;18.63;77.48
58056;BME280;53159;55.152;36.614;2022-08-01T03:52:42;99782.91;;;18.52;76.80
58056;BME280;53159;55.152;36.614;2022-08-01T03:55:12;99787.94;;;18.91;75.00
58056;BME280;53159;55.152;36.614;2022-08-01T03:57:45;99776.47;;;19.00;74.14
58056;BME280;53159;55.152;36.614;2022-08-01T04:00:12;99776.13;;;19.39;73.09
58056;BME280;53159;55.152;36.614;2022-08-01T04:02:39;99773.56;;;19.32;74.76
58056;BME280;53159;55.152;36.614;2022-08-01T04:05:07;99768.28;;;19.36;73.43
58056;BME280;53159;55.152;36.614;2022-08-01T04:07:34;99764.97;;;19.13;73.50
58056;BME280;53159;55.152;36.614;2022-08-01T04:10:06;99769.19;;;19.33;73.74
58056;BME280;53159;55.152;36.614;2022-08-01T04:12:33;99767.22;;;19.52;73.09
58056;BME280;53159;55.152;36.614;2022-08-01T04:15:00;99770.63;;;19.62;72.52
58056;BME280;53159;55.152;36.614;2022-08-01T04:17:34;99768.78;;;19.69;71.97
58056;BME280;53159;55.152;36.614;2022-08-01T04:20:01;99771.38;;;19.73;72.71
58056;BME280;53159;55.152;36.614;2022-08-01T04:22:29;99779.84;;;20.05;71.87
58056;BME280;53159;55.152;36.614;2022-08-01T04:25:00;99780.09;;;20.50;71.79
58056;BME280;53159;55.152;36.614;2022-08-01T04:27:32;99781.38;;;20.85;70.07
58056;BME280;53159;55.152;36.614;2022-08-01T04:30:05;99775.78;;;21.05;69.16
58056;BME280;53159;55.152;36.614;2022-08-01T04:32:35;99780.03;;;21.14;71.67
58056;BME280;53159;55.152;36.614;2022-08-01T04:35:07;99784.31;;;21.21;69.72
58056;BME280;53159;55.152;36.614;2022-08-01T04:37:36;99785.28;;;21.67;70.33
58056;BME280;53159;55.152;36.614;2022-08-01T04:40:04;99782.31;;;21.84;65.60
58056;BME280;53159;55.152;36.614;2022-08-01T04:42:35;99785.19;;;22.16;61.94
58056;BME280;53159;55.152;36.614;2022-08-01T04:45:04;99783.25;;;22.24;62.11
58056;BME280;53159;55.152;36.614;2022-08-01T04:47:31;99787.38;;;22.78;62.21
58056;BME280;53159;55.152;36.614;2022-08-01T04:49:58;99785.38;;;22.86;59.65
58056;BME280;53159;55.152;36.614;2022-08-01T04:52:34;99782.13;;;22.75;58.37
58056;BME280;53159;55.152;36.614;2022-08-01T04:55:04;99780.69;;;22.62;59.28
58056;BME280;53159;55.152;36.614;2022-08-01T04:57:36;99786.34;;;22.46;59.74
58056;BME280;53159;55.152;36.614;2022-08-01T05:00:05;99784.63;;;22.42;62.05
58056;BME280;53159;55.152;36.614;2022-08-01T05:02:33;99783.13;;;22.71;62.95
58056;BME280;53159;55.152;36.614;2022-08-01T05:05:01;99786.84;;;23.00;62.71
58056;BME280;53159;55.152;36.614;2022-08-01T05:07:29;99784.56;;;23.22;60.09
58056;BME280;53159;55.152;36.614;2022-08-01T05:09:57;99781.66;;;23.64;59.94
58056;BME280;53159;55.152;36.614;2022-08-01T05:12:27;99783.84;;;23.81;57.12
58056;BME280;53159;55.152;36.614;2022-08-01T05:14:53;99791.03;;;23.78;56.75
58056;BME280;53159;55.152;36.614;2022-08-01T05:17:20;99780.56;;;23.40;55.92
58056;BME280;53159;55.152;36.614;2022-08-01T05:19:47;99785.44;;;23.21;57.13
58056;BME280;53159;55.152;36.614;2022-08-01T05:22:14;99781.16;;;23.15;57.09
58056;BME280;53159;55.152;36.614;2022-08-01T05:24:42;99790.06;;;22.75;58.23
58056;BME280;53159;55.152;36.614;2022-08-01T05:27:09;99781.97;;;22.81;59.94
58056;BME280;53159;55.152;36.614;2022-08-01T05:29:36;99782.22;;;22.72;59.30
58056;BME280;53159;55.152;36.614;2022-08-01T05:32:04;99772.22;;;22.47;60.21
58056;BME280;53159;55.152;36.614;2022-08-01T05:34:32;99781.09;;;22.43;58.93
58056;BME280;53159;55.152;36.614;2022-08-01T05:36:58;99785.13;;;22.17;59.28
58056;BME280;53159;55.152;36.614;2022-08-01T05:39:26;99779.91;;;22.16;60.52
58056;BME280;53159;55.152;36.614;2022-08-01T05:41:54;99777.47;;;22.05;62.04
58056;BME280;53159;55.152;36.614;2022-08-01T05:44:20;99784.38;;;22.12;62.64
58056;BME280;53159;55.152;36.614;2022-08-01T05:46:48;99780.44;;;22.32;61.20
58056;BME280;53159;55.152;36.614;2022-08-01T05:49:14;99784.31;;;22.58;60.44
58056;BME280;53159;55.152;36.614;2022-08-01T05:51:42;99786.56;;;22.75;63.16
58056;BME280;53159;55.152;36.614;2022-08-01T05:54:09;99783.34;;;22.98;63.01
58056;BME280;53159;55.152;36.614;2022-08-01T05:56:36;99784.78;;;23.11;60.64
58056;BME280;53159;55.152;36.614;2022-08-01T05:59:03;99779.41;;;23.16;59.93
58056;BME280;53159;55.152;36.614;2022-08-01T06:01:30;99776.41;;;22.94;59.79
58056;BME280;53159;55.152;36.614;2022-08-01T06:03:57;99782.63;;;22.91;61.66
58056;BME280;53159;55.152;36.614;2022-08-01T06:06:25;99774.97;;;23.18;62.84
58056;BME280;53159;55.152;36.614;2022-08-01T06:08:52;99773.16;;;23.18;60.25
58056;BME280;53159;55.152;36.614;2022-08-01T06:11:18;99772.84;;;23.31;59.91
58056;BME280;53159;55.152;36.614;2022-08-01T06:13:46;99777.94;;;23.39;59.53
58056;BME280;53159;55.152;36.614;2022-08-01T06:16:12;99776.97;;;23.43;59.26
58056;BME280;53159;55.152;36.614;2022-08-01T06:18:40;99781.22;;;23.48;58.64
58056;BME280;53159;55.152;36.614;2022-08-01T06:21:08;99781.59;;;23.67;59.04
58056;BME280;53159;55.152;36.614;2022-08-01T06:23:34;99783.00;;;23.81;57.44
58056;BME280;53159;55.152;36.614;2022-08-01T06:26:04;99784.88;;;23.76;56.46
58056;BME280;53159;55.152;36.614;2022-08-01T06:28:30;99784.44;;;23.60;56.26
58056;BME280;53159;55.152;36.614;2022-08-01T06:30:58;99786.03;;;23.34;56.99
58056;BME280;53159;55.152;36.614;2022-08-01T06:33:26;99782.75;;;23.23;57.64
58056;BME280;53159;55.152;36.614;2022-08-01T06:35:53;99793.44;;;23.20;58.69
58056;BME280;53159;55.152;36.614;2022-08-01T06:38:20;99791.44;;;23.29;59.34
58056;BME280;53159;55.152;36.614;2022-08-01T06:40:46;99791.63;;;23.22;57.28
58056;BME280;53159;55.152;36.614;2022-08-01T06:43:14;99780.47;;;23.07;55.42
58056;BME280;53159;55.152;36.614;2022-08-01T07:15:42;99786.69;;;24.07;52.76
58056;BME280;53159;55.152;36.614;2022-08-01T07:18:11;99788.75;;;23.97;51.30
58056;BME280;53159;55.152;36.614;2022-08-01T07:20:37;99780.25;;;24.15;53.19
58056;BME280;53159;55.152;36.614;2022-08-01T07:23:06;99786.50;;;24.13;52.19
58056;BME280;53159;55.152;36.614;2022-08-01T07:25:33;99779.69;;;24.06;50.63
58056;BME280;53159;55.152;36.614;2022-08-01T07:28:01;99783.25;;;24.05;53.01
58056;BME280;53159;55.152;36.614;2022-08-01T07:30:28;99784.75;;;24.13;53.09
58056;BME280;53159;55.152;36.614;2022-08-01T07:32:55;99775.22;;;24.06;50.52
58056;BME280;53159;55.152;36.614;2022-08-01T07:35:22;99777.75;;;24.11;51.01
58056;BME280;53159;55.152;36.614;2022-08-01T07:37:50;99782.88;;;24.17;50.88
58056;BME280;53159;55.152;36.614;2022-08-01T07:40:19;99785.41;;;24.20;51.47
58056;BME280;53159;55.152;36.614;2022-08-01T07:42:46;99776.78;;;24.13;49.49
58056;BME280;53159;55.152;36.614;2022-08-01T07:45:13;99778.97;;;23.99;49.56
58056;BME280;53159;55.152;36.614;2022-08-01T07:47:41;99791.78;;;24.14;51.42
58056;BME280;53159;55.152;36.614;2022-08-01T07:50:08;99783.72;;;24.18;51.50
58056;BME280;53159;55.152;36.614;2022-08-01T07:52:36;99779.81;;;24.01;51.42
58056;BME280;53159;55.152;36.614;2022-08-01T07:55:04;99780.75;;;23.98;52.50
58056;BME280;53159;55.152;36.614;2022-08-01T07:57:31;99780.78;;;23.97;50.33
58056;BME280;53159;55.152;36.614;2022-08-01T07:59:58;99777.59;;;24.15;50.25
58056;BME280;53159;55.152;36.614;2022-08-01T08:02:25;99783.56;;;24.24;50.52
58056;BME280;53159;55.152;36.614;2022-08-01T08:04:52;99773.53;;;24.34;50.23
58056;BME280;53159;55.152;36.614;2022-08-01T08:07:19;99779.25;;;24.20;48.13
58056;BME280;53159;55.152;36.614;2022-08-01T08:09:46;99776.50;;;24.23;50.84
58056;BME280;53159;55.152;36.614;2022-08-01T08:12:14;99777.03;;;24.34;51.42
58056;BME280;53159;55.152;36.614;2022-08-01T08:14:41;99770.50;;;24.46;51.24
58056;BME280;53159;55.152;36.614;2022-08-01T08:17:09;99769.28;;;24.56;50.50
58056;BME280;53159;55.152;36.614;2022-08-01T08:19:36;99771.53;;;24.42;47.12
58056;BME280;53159;55.152;36.614;2022-08-01T08:22:06;99771.72;;;24.36;47.99
58056;BME280;53159;55.152;36.614;2022-08-01T08:24:36;99776.84;;;24.42;49.54
58056;BME280;53159;55.152;36.614;2022-08-01T08:27:04;99766.22;;;24.42;48.75
58056;BME280;53159;55.152;36.614;2022-08-01T08:29:31;99761.25;;;24.31;47.95
58056;BME280;53159;55.152;36.614;2022-08-01T08:31:59;99772.50;;;24.39;49.11
58056;BME280;53159;55.152;36.614;2022-08-01T08:34:28;99765.53;;;24.35;49.13
58056;BME280;53159;55.152;36.614;2022-08-01T08:42:57;99758.78;;;24.53;46.93
58056;BME280;53159;55.152;36.614;2022-08-01T08:45:27;99755.81;;;24.64;49.07
58056;BME280;53159;55.152;36.614;2022-08-01T08:47:54;99760.00;;;24.43;46.92
58056;BME280;53159;55.152;36.614;2022-08-01T08:50:25;99757.81;;;24.27;47.27
58056;BME280;53159;55.152;36.614;2022-08-01T08:52:54;99752.31;;;24.34;48.62
58056;BME280;53159;55.152;36.614;2022-08-01T08:55:21;99748.44;;;24.44;48.64
58056;BME280;53159;55.152;36.614;2022-08-01T08:57:50;99753.28;;;24.59;50.00
58056;BME280;53159;55.152;36.614;2022-08-01T09:00:19;99744.69;;;24.51;47.02
58056;BME280;53159;55.152;36.614;2022-08-01T09:02:47;99747.47;;;24.46;47.47
58056;BME280;53159;55.152;36.614;2022-08-01T09:05:16;99741.63;;;24.37;46.49
58056;BME280;53159;55.152;36.614;2022-08-01T09:07:43;99740.66;;;24.39;47.17
58056;BME280;53159;55.152;36.614;2022-08-01T09:10:10;99743.25;;;24.41;48.80
58056;BME280;53159;55.152;36.614;2022-08-01T09:12:37;99743.78;;;24.52;47.63
58056;BME280;53159;55.152;36.614;2022-08-01T09:15:04;99739.31;;;24.54;45.76
58056;BME280;53159;55.152;36.614;2022-08-01T09:17:40;99731.84;;;24.67;45.21
58056;BME280;53159;55.152;36.614;2022-08-01T09:20:08;99733.41;;;24.44;45.17
58056;BME280;53159;55.152;36.614;2022-08-01T09:22:51;99735.81;;;24.24;46.19
58056;BME280;53159;55.152;36.614;2022-08-01T09:25:17;99733.28;;;24.19;48.72
58056;BME280;53159;55.152;36.614;2022-08-01T09:27:45;99727.00;;;24.23;45.91
58056;BME280;53159;55.152;36.614;2022-08-01T09:30:16;99741.66;;;24.35;49.26
58056;BME280;53159;55.152;36.614;2022-08-01T09:35:25;99735.94;;;24.49;49.90
58056;BME280;53159;55.152;36.614;2022-08-01T09:38:12;99729.91;;;24.72;50.05
58056;BME280;53159;55.152;36.614;2022-08-01T09:43:20;99738.06;;;24.93;47.13
58056;BME280;53159;55.152;36.614;2022-08-01T09:45:48;99735.44;;;25.18;47.88
58056;BME280;53159;55.152;36.614;2022-08-01T09:48:15;99732.16;;;25.37;46.78
58056;BME280;53159;55.152;36.614;2022-08-01T09:50:45;99735.28;;;25.50;45.97
58056;BME280;53159;55.152;36.614;2022-08-01T09:53:13;99737.88;;;25.51;45.58
58056;BME280;53159;55.152;36.614;2022-08-01T09:55:42;99738.91;;;25.20;46.00
58056;BME280;53159;55.152;36.614;2022-08-01T09:58:11;99741.28;;;25.03;45.42
58056;BME280;53159;55.152;36.614;2022-08-01T10:00:39;99725.41;;;24.74;44.50
58056;BME280;53159;55.152;36.614;2022-08-01T10:03:22;99721.84;;;24.75;43.69
58056;BME280;53159;55.152;36.614;2022-08-01T10:05:50;99724.44;;;24.77;43.21
58056;BME280;53159;55.152;36.614;2022-08-01T10:08:18;99732.91;;;24.88;43.70
58056;BME280;53159;55.152;36.614;2022-08-01T10:11:12;99729.53;;;24.55;46.28
58056;BME280;53159;55.152;36.614;2022-08-01T10:13:42;99730.78;;;24.73;48.18
58056;BME280;53159;55.152;36.614;2022-08-01T10:16:10;99736.34;;;24.92;49.27
58056;BME280;53159;55.152;36.614;2022-08-01T10:18:41;99735.16;;;25.01;45.78
58056;BME280;53159;55.152;36.614;2022-08-01T10:21:09;99721.94;;;24.99;44.53
58056;BME280;53159;55.152;36.614;2022-08-01T10:23:37;99733.47;;;24.98;46.59
58056;BME280;53159;55.152;36.614;2022-08-01T10:26:12;99730.31;;;24.87;45.53
58056;BME280;53159;55.152;36.614;2022-08-01T10:28:40;99730.88;;;24.70;45.34
58056;BME280;53159;55.152;36.614;2022-08-01T10:31:13;99723.69;;;24.73;45.57
58056;BME280;53159;55.152;36.614;2022-08-01T10:33:40;99722.41;;;24.85;46.76
58056;BME280;53159;55.152;36.614;2022-08-01T10:36:09;99725.78;;;24.90;46.33
58056;BME280;53159;55.152;36.614;2022-08-01T10:38:37;99716.91;;;24.91;45.98
58056;BME280;53159;55.152;36.614;2022-08-01T10:41:05;99722.84;;;24.98;45.45
58056;BME280;53159;55.152;36.614;2022-08-01T10:43:32;99711.28;;;24.74;44.24
58056;BME280;53159;55.152;36.614;2022-08-01T10:46:00;99712.66;;;24.86;44.64
58056;BME280;53159;55.152;36.614;2022-08-01T10:48:35;99715.56;;;24.78;45.08
58056;BME280;53159;55.152;36.614;2022-08-01T10:51:08;99706.06;;;24.71;44.40
58056;BME280;53159;55.152;36.614;2022-08-01T10:53:34;99706.25;;;24.65;45.69
58056;BME280;53159;55.152;36.614;2022-08-01T10:56:03;99711.09;;;24.52;45.76
58056;BME280;53159;55.152;36.614;2022-08-01T10:58:36;99716.28;;;24.55;47.29
58056;BME280;53159;55.152;36.614;2022-08-01T11:04:08;99710.66;;;24.66;48.96
58056;BME280;53159;55.152;36.614;2022-08-01T11:06:36;99706.78;;;24.76;49.92
58056;BME280;53159;55.152;36.614;2022-08-01T11:12:01;99701.94;;;24.89;44.92
58056;BME280;53159;55.152;36.614;2022-08-01T11:14:31;99706.56;;;25.09;47.51
58056;BME280;53159;55.152;36.614;2022-08-01T11:20:19;99689.81;;;25.32;44.30
58056;BME280;53159;55.152;36.614;2022-08-01T11:28:17;99693.81;;;25.46;44.47
58056;BME280;53159;55.152;36.614;2022-08-01T11:33:14;99685.16;;;25.64;41.19
58056;BME280;53159;55.152;36.614;2022-08-01T11:38:44;99683.28;;;25.66;41.08
58056;BME280;53159;55.152;36.614;2022-08-01T11:41:23;99664.44;;;25.72;40.09
58056;BME280;53159;55.152;36.614;2022-08-01T11:46:51;99674.09;;;25.75;43.15
58056;BME280;53159;55.152;36.614;2022-08-01T11:49:31;99667.69;;;25.81;43.34
58056;BME280;53159;55.152;36.614;2022-08-01T11:52:04;99663.75;;;25.67;41.44
58056;BME280;53159;55.152;36.614;2022-08-01T11:54:34;99666.34;;;25.69;41.70
58056;BME280;53159;55.152;36.614;2022-08-01T11:57:04;99668.22;;;25.67;40.79
58056;BME280;53159;55.152;36.614;2022-08-01T11:59:44;99660.94;;;25.72;40.39
58056;BME280;53159;55.152;36.614;2022-08-01T12:02:25;99676.28;;;25.64;40.08
58056;BME280;53159;55.152;36.614;2022-08-01T12:04:57;99669.22;;;25.39;40.58
58056;BME280;53159;55.152;36.614;2022-08-01T12:07:30;99664.94;;;25.09;40.72
58056;BME280;53159;55.152;36.614;2022-08-01T12:10:00;99654.81;;;24.95;40.75
58056;BME280;53159;55.152;36.614;2022-08-01T12:12:31;99668.00;;;24.97;41.10
58056;BME280;53159;55.152;36.614;2022-08-01T12:15:03;99660.59;;;24.82;40.88
58056;BME280;53159;55.152;36.614;2022-08-01T12:17:34;99660.13;;;24.69;42.34
58056;BME280;53159;55.152;36.614;2022-08-01T12:20:03;99663.34;;;24.52;42.85
58056;BME280;53159;55.152;36.614;2022-08-01T12:22:33;99654.44;;;24.53;43.97
58056;BME280;53159;55.152;36.614;2022-08-01T12:25:11;99647.44;;;24.50;42.86
58056;BME280;53159;55.152;36.614;2022-08-01T12:27:40;99653.28;;;24.61;43.83
58056;BME280;53159;55.152;36.614;2022-08-01T12:30:17;99649.28;;;24.76;44.22
58056;BME280;53159;55.152;36.614;2022-08-01T12:32:46;99647.19;;;24.85;43.35
58056;BME280;53159;55.152;36.614;2022-08-01T12:35:18;99641.91;;;24.85;41.44
58056;BME280;53159;55.152;36.614;2022-08-01T12:37:54;99646.13;;;24.90;42.05
58056;BME280;53159;55.152;36.614;2022-08-01T12:40:26;99641.59;;;24.94;42.48
58056;BME280;53159;55.152;36.614;2022-08-01T12:42:58;99641.47;;;24.97;40.48
58056;BME280;53159;55.152;36.614;2022-08-01T12:45:28;99644.09;;;24.99;41.34
58056;BME280;53159;55.152;36.614;2022-08-01T12:48:01;99647.38;;;25.05;42.96
58056;BME280;53159;55.152;36.614;2022-08-01T12:50:32;99639.84;;;24.93;40.60
58056;BME280;53159;55.152;36.614;2022-08-01T12:52:58;99629.22;;;24.93;41.81
58056;BME280;53159;55.152;36.614;2022-08-01T12:55:26;99638.78;;;24.99;40.35
58056;BME280;53159;55.152;36.614;2022-08-01T12:58:07;99632.72;;;24.95;39.29
58056;BME280;53159;55.152;36.614;2022-08-01T13:00:35;99635.78;;;25.08;40.08
58056;BME280;53159;55.152;36.614;2022-08-01T13:03:06;99638.22;;;25.14;40.48
58056;BME280;53159;55.152;36.614;2022-08-01T13:05:43;99638.00;;;25.20;41.30
58056;BME280;53159;55.152;36.614;2022-08-01T13:08:16;99632.53;;;25.25;40.98
58056;BME280;53159;55.152;36.614;2022-08-01T13:10:44;99638.75;;;25.24;41.23
58056;BME280;53159;55.152;36.614;2022-08-01T13:13:13;99626.75;;;25.14;42.85
58056;BME280;53159;55.152;36.614;2022-08-01T13:15:42;99630.31;;;25.13;42.50
58056;BME280;53159;55.152;36.614;2022-08-01T13:18:30;99630.63;;;25.03;42.13
58056;BME280;53159;55.152;36.614;2022-08-01T13:21:17;99635.94;;;25.03;41.46
58056;BME280;53159;55.152;36.614;2022-08-01T13:24:05;99630.91;;;24.95;41.19
58056;BME280;53159;55.152;36.614;2022-08-01T13:26:49;99630.38;;;24.86;41.41
58056;BME280;53159;55.152;36.614;2022-08-01T13:29:44;99631.75;;;24.71;42.09
58056;BME280;53159;55.152;36.614;2022-08-01T13:32:15;99639.97;;;24.63;42.20
58056;BME280;53159;55.152;36.614;2022-08-01T13:34:42;99630.25;;;24.62;42.83
58056;BME280;53159;55.152;36.614;2022-08-01T13:37:11;99643.44;;;24.65;44.19
58056;BME280;53159;55.152;36.614;2022-08-01T13:39:37;99634.03;;;24.55;42.80
58056;BME280;53159;55.152;36.614;2022-08-01T13:42:13;99633.31;;;24.50;43.05
58056;BME280;53159;55.152;36.614;2022-08-01T13:44:41;99638.63;;;24.50;43.29
58056;BME280;53159;55.152;36.614;2022-08-01T13:47:12;99636.69;;;24.55;42.62
58056;BME280;53159;55.152;36.614;2022-08-01T13:49:41;99639.13;;;24.61;42.57
58056;BME280;53159;55.152;36.614;2022-08-01T13:52:08;99633.78;;;24.62;43.39
58056;BME280;53159;55.152;36.614;2022-08-01T13:54:36;99639.19;;;24.59;43.15
58056;BME280;53159;55.152;36.614;2022-08-01T13:57:05;99640.22;;;24.55;44.24
58056;BME280;53159;55.152;36.614;2022-08-01T13:59:33;99635.31;;;24.43;43.79
58056;BME280;53159;55.152;36.614;2022-08-01T14:02:00;99640.25;;;24.27;44.09
58056;BME280;53159;55.152;36.614;2022-08-01T14:04:27;99632.66;;;24.16;44.09
58056;BME280;53159;55.152;36.614;2022-08-01T14:06:55;99638.81;;;24.17;44.81
58056;BME280;53159;55.152;36.614;2022-08-01T14:09:22;99631.75;;;24.17;45.32
58056;BME280;53159;55.152;36.614;2022-08-01T14:11:51;99629.09;;;24.17;45.72
58056;BME280;53159;55.152;36.614;2022-08-01T14:14:18;99625.41;;;24.21;45.39
58056;BME280;53159;55.152;36.614;2022-08-01T14:16:46;99626.25;;;24.22;45.85
58056;BME280;53159;55.152;36.614;2022-08-01T14:19:14;99633.63;;;24.13;46.36
58056;BME280;53159;55.152;36.614;2022-08-01T14:21:43;99638.09;;;24.11;46.83